Estación Meteorológica Peña el Pijo (Robertgarden) [ 06/14/24 09:34:55 CEST ]

Fecha Hora Presion(HPa) Temp (°C) Humedad % Rocio (°C) Viento ( m/s) Direccion Lluvia 1Hora(mm) Lluvia 24H(mm) LLuvia Total(mm)
2010-Nov-02 01:01:19 1010.700 8.0 78 4.4         177.15
2010-Nov-02 02:03:17 1010.000 7.8 77 4.0         177.15
2010-Nov-02 03:01:14 1010.000 6.1 82 3.2         177.15
2010-Nov-02 04:01:11 1010.300 6.4 82 3.5         177.15
2010-Nov-02 05:01:18 1010.100 7.8 78 4.2         177.15
2010-Nov-02 06:01:11 1010.600 8.2 76 4.2         177.15
2010-Nov-02 07:01:10 1010.800 8.2 74 3.8         177.15
2010-Nov-02 08:01:12 1011.200 7.8 73 3.3         177.15
2010-Nov-02 09:01:11 1011.600 8.9 70 3.7         177.15
2010-Nov-02 10:01:11 1012.000 10.5 66 4.4         177.15
2010-Nov-02 11:01:14 1011.900 12.8 56 4.2         177.15
2010-Nov-02 12:01:18 1011.800 16.1 45 4.1         177.15
2010-Nov-02 13:01:12 1011.300 17.6 42 4.5         177.15
2010-Nov-02 14:01:14 1011.400 17.1 42 4.0         177.15
2010-Nov-02 15:01:12 1011.100 17.1 42 4.0         177.15
2010-Nov-02 16:01:14 1011.400 16.3 43 3.6         177.15
2010-Nov-02 17:01:15 1012.000 13.2 50 3.0         177.15
2010-Nov-02 18:01:14 1012.400 11.1 59 3.3         177.15
2010-Nov-02 19:01:14 1013.400 8.4 68 2.8         177.15
2010-Nov-02 20:01:17 1013.900 6.5 74 2.2         177.15
2010-Nov-02 21:01:11 1014.300 5.4 79 2.0         177.15
2010-Nov-02 22:01:14 1014.400 4.9 82 2.0         177.15
2010-Nov-02 23:01:12 1014.800 4.5 84 2.0         0.00

Temperatura Máxima:17°    Temperatura Mínima:
Presión Máxima:1014.800 Hpa    Presión Mínima:1010.000 Hpa


Volver